Accueil
METAR-TAF:

METAR-TAF

Aéroports :

Florești, Moldavie

latitude: 47-51-45N, longitude: 028-12-45E, altitude: 101 m

Observation

Le bulletin a été fait il y a 11 heures et 6 minutes, à 12:30 UTC
Vent 5 kt de sud-est
Température 7°C
Humidité 66%
Pression 1010 hPa
Visibilité 10 km ou plus
pas de nuages en-dessous de 1500 mètres et pas de cumulonimbus.

METAR: LUBM 091230Z 13005KT CAVOK 07/01 Q1010 R25/CLRD65

Heure: 01:36 (23:36 UTC)

Prévision

Le bulletin a été fait il y a 11 heures et 29 minutes, à 12:07 UTC
Prévision valable du 09 à 12 UTC au 09 à 21 UTC
Vent 8 kt de sud
Visibilité 10 km ou plus
pas de nuages en-dessous de 1500 mètres et pas de cumulonimbus.
Evoluant progressivement
du 09 à 15 UTC au 09 à 17 UTC
Visibilité: 5000 m
brume

TAF: LUBM 091207Z 0912/0921 17008KT CAVOK BECMG 0915/0917 5000 BR

Observations et prévisions météorologiques de plus de 4000 aéroports (messages METAR et TAF).

Les stations disponibles sont représentées par des disques jaunes et rouges sur la carte.

Passer la souris dessus pour voir le nom de la station.

Cliquer dessus pour voir les observations et prévisions météorologiques.

Pour changer de carte: cliquez sur les boutons verts avec une croix noire pour zoomer, sur le bouton vert avec un tiret pour effectuer un zoom arrière, ou sur les flèches vertes pour les cartes adjacentes.


METAR-TAF: